Airfield :
LOGIN :

Register | Disclaimer

   EN    FR    IT 

 










Legend :    VFR   Marginal VFR   IFR   Intensive IFR   Very Intensive IFR
Visi :
Ceiling :
>= 8 km
>= 3000ft
5 to 8 km
1000 to 3000 ft
1500m to 5 km
500 to 1000 ft
800 to 1500m
200 to 500 ft
< 800m
< 200 ft
Symbols :   Thunderstorms  Fog  Heavy snow  Heavy precipitations  Wind > 20 kt
SIGMETs :     Misc.  Thunderstorms  Icing  Turbulence  Mountain Waves  Volcanic Ashes






- Airport Elevation : 1084 ft
- IATA code : EPL


LFSG - Épinal-Mirecourt

CURRENT METAR :
  • 121230Z AUTO 20013KT 9999 FEW020 BKN033 04/00 Q1004

EXPIRED METARs :
  • 121200Z AUTO 20013KT 9999 BKN018 BKN025 04/01 Q1004
  • 121130Z AUTO 21014KT 9999 BKN014 OVC022 03/01 Q1005
  • 121100Z AUTO 20011KT 9999 BKN013 BKN023 OVC030 03/01 Q1006
  • 121030Z AUTO 22012KT 9999 OVC013 04/01 Q1006
  • 121000Z AUTO 22010KT 9999 OVC012 03/01 Q1006

TAF N/A



MET'MAP, your aeronautical weather chart ! - Copyright ORBIFLY December 2007 - Disclaimer

ORBIFLY MET'MAP TEAM :

Programming & Development : Alexandra Zaïnal
Concept & original design : Baudouin d'Aumeries
Assistance for programming : Marc-Olivier Méhu
Technical & hardware support : Manuel Goepfert

Contact : metmap@orbifly.com




SOURCES & CREDITS :

   NOAA